sensor_id;sensor_type;location;lat;lon;timestamp;P1;durP1;ratioP1;P2;durP2;ratioP2
19867;SDS011;10096;51.112;6.776;2023-03-08T00:02:07;14.40;;;10.90;;
19867;SDS011;10096;51.112;6.776;2023-03-08T00:04:34;14.73;;;9.37;;
19867;SDS011;10096;51.112;6.776;2023-03-08T00:07:01;10.83;;;6.63;;
19867;SDS011;10096;51.112;6.776;2023-03-08T00:09:32;7.53;;;6.23;;
19867;SDS011;10096;51.112;6.776;2023-03-08T00:12:00;7.23;;;6.10;;
19867;SDS011;10096;51.112;6.776;2023-03-08T00:14:27;8.43;;;5.50;;
19867;SDS011;10096;51.112;6.776;2023-03-08T00:16:54;8.07;;;5.60;;
19867;SDS011;10096;51.112;6.776;2023-03-08T00:19:21;7.90;;;5.83;;
19867;SDS011;10096;51.112;6.776;2023-03-08T00:21:47;8.00;;;5.37;;
19867;SDS011;10096;51.112;6.776;2023-03-08T00:24:14;9.03;;;5.40;;
19867;SDS011;10096;51.112;6.776;2023-03-08T00:26:43;8.73;;;5.83;;
19867;SDS011;10096;51.112;6.776;2023-03-08T00:29:10;9.40;;;5.87;;
19867;SDS011;10096;51.112;6.776;2023-03-08T00:31:37;7.67;;;6.20;;
19867;SDS011;10096;51.112;6.776;2023-03-08T00:34:04;10.60;;;6.00;;
19867;SDS011;10096;51.112;6.776;2023-03-08T00:36:31;7.47;;;5.70;;
19867;SDS011;10096;51.112;6.776;2023-03-08T00:38:58;9.97;;;6.00;;
19867;SDS011;10096;51.112;6.776;2023-03-08T00:41:25;7.30;;;5.80;;
19867;SDS011;10096;51.112;6.776;2023-03-08T00:43:53;6.40;;;5.50;;
19867;SDS011;10096;51.112;6.776;2023-03-08T00:46:20;7.30;;;5.60;;
19867;SDS011;10096;51.112;6.776;2023-03-08T00:48:47;8.47;;;5.40;;
19867;SDS011;10096;51.112;6.776;2023-03-08T00:51:14;6.80;;;5.20;;
19867;SDS011;10096;51.112;6.776;2023-03-08T00:53:42;6.27;;;5.23;;
19867;SDS011;10096;51.112;6.776;2023-03-08T00:56:09;6.93;;;5.40;;
19867;SDS011;10096;51.112;6.776;2023-03-08T00:58:36;8.70;;;5.97;;
19867;SDS011;10096;51.112;6.776;2023-03-08T01:01:07;8.13;;;6.30;;
19867;SDS011;10096;51.112;6.776;2023-03-08T01:03:38;8.60;;;5.57;;
19867;SDS011;10096;51.112;6.776;2023-03-08T01:06:06;9.97;;;5.67;;
19867;SDS011;10096;51.112;6.776;2023-03-08T01:08:35;8.37;;;6.13;;
19867;SDS011;10096;51.112;6.776;2023-03-08T01:11:04;9.27;;;5.57;;
19867;SDS011;10096;51.112;6.776;2023-03-08T01:13:32;7.77;;;5.60;;
19867;SDS011;10096;51.112;6.776;2023-03-08T01:16:00;8.43;;;5.33;;
19867;SDS011;10096;51.112;6.776;2023-03-08T01:18:29;6.60;;;5.33;;
19867;SDS011;10096;51.112;6.776;2023-03-08T01:20:56;7.83;;;6.57;;
19867;SDS011;10096;51.112;6.776;2023-03-08T01:23:24;10.03;;;6.03;;
19867;SDS011;10096;51.112;6.776;2023-03-08T01:25:58;15.97;;;5.93;;
19867;SDS011;10096;51.112;6.776;2023-03-08T01:28:27;8.47;;;6.00;;
19867;SDS011;10096;51.112;6.776;2023-03-08T01:31:00;8.37;;;5.50;;
19867;SDS011;10096;51.112;6.776;2023-03-08T01:33:29;7.73;;;5.30;;
19867;SDS011;10096;51.112;6.776;2023-03-08T01:35:57;9.00;;;5.53;;
19867;SDS011;10096;51.112;6.776;2023-03-08T01:38:24;9.70;;;5.87;;
19867;SDS011;10096;51.112;6.776;2023-03-08T01:40:54;10.33;;;5.93;;
19867;SDS011;10096;51.112;6.776;2023-03-08T01:43:22;9.37;;;6.17;;
19867;SDS011;10096;51.112;6.776;2023-03-08T01:46:04;7.93;;;5.30;;
19867;SDS011;10096;51.112;6.776;2023-03-08T01:48:37;7.60;;;5.77;;
19867;SDS011;10096;51.112;6.776;2023-03-08T01:51:07;8.97;;;6.20;;
19867;SDS011;10096;51.112;6.776;2023-03-08T01:53:37;10.40;;;5.93;;
19867;SDS011;10096;51.112;6.776;2023-03-08T01:56:06;8.40;;;5.97;;
19867;SDS011;10096;51.112;6.776;2023-03-08T01:58:36;7.10;;;5.43;;
19867;SDS011;10096;51.112;6.776;2023-03-08T02:01:05;6.57;;;5.37;;
19867;SDS011;10096;51.112;6.776;2023-03-08T02:03:32;8.83;;;6.07;;
19867;SDS011;10096;51.112;6.776;2023-03-08T02:06:01;8.73;;;6.03;;
19867;SDS011;10096;51.112;6.776;2023-03-08T02:08:29;9.27;;;6.70;;
19867;SDS011;10096;51.112;6.776;2023-03-08T02:10:57;7.93;;;5.27;;
19867;SDS011;10096;51.112;6.776;2023-03-08T02:13:26;10.57;;;5.63;;
19867;SDS011;10096;51.112;6.776;2023-03-08T02:15:53;8.90;;;5.87;;
19867;SDS011;10096;51.112;6.776;2023-03-08T02:18:24;9.63;;;5.87;;
19867;SDS011;10096;51.112;6.776;2023-03-08T02:20:51;8.97;;;6.30;;
19867;SDS011;10096;51.112;6.776;2023-03-08T02:23:19;7.57;;;5.97;;
19867;SDS011;10096;51.112;6.776;2023-03-08T02:25:49;9.80;;;6.70;;
19867;SDS011;10096;51.112;6.776;2023-03-08T02:28:18;9.07;;;6.40;;
19867;SDS011;10096;51.112;6.776;2023-03-08T02:30:46;8.07;;;6.30;;
19867;SDS011;10096;51.112;6.776;2023-03-08T02:33:14;9.30;;;5.87;;
19867;SDS011;10096;51.112;6.776;2023-03-08T02:35:41;8.70;;;6.27;;
19867;SDS011;10096;51.112;6.776;2023-03-08T02:38:08;8.57;;;6.10;;
19867;SDS011;10096;51.112;6.776;2023-03-08T02:40:37;11.10;;;6.73;;
19867;SDS011;10096;51.112;6.776;2023-03-08T02:43:05;9.23;;;6.37;;
19867;SDS011;10096;51.112;6.776;2023-03-08T02:45:32;8.37;;;6.43;;
19867;SDS011;10096;51.112;6.776;2023-03-08T02:48:00;9.50;;;6.37;;
19867;SDS011;10096;51.112;6.776;2023-03-08T02:50:27;9.23;;;6.53;;
19867;SDS011;10096;51.112;6.776;2023-03-08T02:52:54;9.30;;;6.57;;
19867;SDS011;10096;51.112;6.776;2023-03-08T02:55:21;7.70;;;6.40;;
19867;SDS011;10096;51.112;6.776;2023-03-08T02:57:49;9.03;;;6.43;;
19867;SDS011;10096;51.112;6.776;2023-03-08T03:00:16;9.83;;;6.60;;
19867;SDS011;10096;51.112;6.776;2023-03-08T03:02:44;10.20;;;6.67;;
19867;SDS011;10096;51.112;6.776;2023-03-08T03:05:11;10.67;;;6.60;;
19867;SDS011;10096;51.112;6.776;2023-03-08T03:07:39;9.57;;;6.93;;
19867;SDS011;10096;51.112;6.776;2023-03-08T03:10:07;10.60;;;7.20;;
19867;SDS011;10096;51.112;6.776;2023-03-08T03:12:37;9.93;;;7.17;;
19867;SDS011;10096;51.112;6.776;2023-03-08T03:15:07;9.40;;;7.27;;
19867;SDS011;10096;51.112;6.776;2023-03-08T03:17:35;9.63;;;7.10;;
19867;SDS011;10096;51.112;6.776;2023-03-08T03:20:05;10.83;;;7.17;;
19867;SDS011;10096;51.112;6.776;2023-03-08T03:22:33;8.70;;;6.87;;
19867;SDS011;10096;51.112;6.776;2023-03-08T03:25:00;11.17;;;6.70;;
19867;SDS011;10096;51.112;6.776;2023-03-08T03:27:27;10.23;;;7.13;;
19867;SDS011;10096;51.112;6.776;2023-03-08T03:29:54;10.20;;;6.87;;
19867;SDS011;10096;51.112;6.776;2023-03-08T03:32:23;9.90;;;6.23;;
19867;SDS011;10096;51.112;6.776;2023-03-08T03:34:50;10.00;;;7.47;;
19867;SDS011;10096;51.112;6.776;2023-03-08T03:37:17;9.43;;;6.90;;
19867;SDS011;10096;51.112;6.776;2023-03-08T03:39:44;12.53;;;7.57;;
19867;SDS011;10096;51.112;6.776;2023-03-08T03:42:11;11.10;;;7.10;;
19867;SDS011;10096;51.112;6.776;2023-03-08T03:44:38;12.00;;;7.47;;
19867;SDS011;10096;51.112;6.776;2023-03-08T03:47:05;11.70;;;7.37;;
19867;SDS011;10096;51.112;6.776;2023-03-08T03:49:34;10.37;;;7.17;;
19867;SDS011;10096;51.112;6.776;2023-03-08T03:52:01;10.23;;;7.57;;
19867;SDS011;10096;51.112;6.776;2023-03-08T03:54:29;10.77;;;8.07;;
19867;SDS011;10096;51.112;6.776;2023-03-08T03:56:56;11.20;;;7.57;;
19867;SDS011;10096;51.112;6.776;2023-03-08T03:59:24;11.90;;;8.33;;
19867;SDS011;10096;51.112;6.776;2023-03-08T04:01:51;11.40;;;7.67;;
19867;SDS011;10096;51.112;6.776;2023-03-08T04:04:18;10.33;;;7.30;;
19867;SDS011;10096;51.112;6.776;2023-03-08T04:06:47;10.37;;;7.10;;
19867;SDS011;10096;51.112;6.776;2023-03-08T04:09:15;11.70;;;7.43;;
19867;SDS011;10096;51.112;6.776;2023-03-08T04:11:43;11.30;;;7.30;;
19867;SDS011;10096;51.112;6.776;2023-03-08T04:14:13;11.23;;;7.37;;
19867;SDS011;10096;51.112;6.776;2023-03-08T04:16:39;11.70;;;7.90;;
19867;SDS011;10096;51.112;6.776;2023-03-08T04:19:08;11.13;;;8.40;;
19867;SDS011;10096;51.112;6.776;2023-03-08T04:21:36;11.40;;;8.20;;
19867;SDS011;10096;51.112;6.776;2023-03-08T04:24:07;11.87;;;7.97;;
19867;SDS011;10096;51.112;6.776;2023-03-08T04:26:34;11.77;;;8.37;;
19867;SDS011;10096;51.112;6.776;2023-03-08T04:29:01;11.63;;;8.70;;
19867;SDS011;10096;51.112;6.776;2023-03-08T04:31:30;11.73;;;8.60;;
19867;SDS011;10096;51.112;6.776;2023-03-08T04:33:59;12.93;;;9.73;;
19867;SDS011;10096;51.112;6.776;2023-03-08T04:36:26;11.37;;;8.63;;
19867;SDS011;10096;51.112;6.776;2023-03-08T04:38:55;12.63;;;8.87;;
19867;SDS011;10096;51.112;6.776;2023-03-08T04:41:23;13.27;;;8.50;;
19867;SDS011;10096;51.112;6.776;2023-03-08T04:43:51;14.27;;;9.70;;
19867;SDS011;10096;51.112;6.776;2023-03-08T04:46:20;17.33;;;9.30;;
19867;SDS011;10096;51.112;6.776;2023-03-08T04:48:48;15.23;;;9.70;;
19867;SDS011;10096;51.112;6.776;2023-03-08T04:51:18;13.40;;;9.40;;
19867;SDS011;10096;51.112;6.776;2023-03-08T04:53:45;13.23;;;8.43;;
19867;SDS011;10096;51.112;6.776;2023-03-08T04:56:14;13.03;;;8.03;;
19867;SDS011;10096;51.112;6.776;2023-03-08T04:58:43;13.93;;;9.67;;
19867;SDS011;10096;51.112;6.776;2023-03-08T05:01:11;12.30;;;9.43;;
19867;SDS011;10096;51.112;6.776;2023-03-08T05:03:42;15.57;;;10.50;;
19867;SDS011;10096;51.112;6.776;2023-03-08T05:06:09;14.83;;;11.10;;
19867;SDS011;10096;51.112;6.776;2023-03-08T05:08:38;13.83;;;10.63;;
19867;SDS011;10096;51.112;6.776;2023-03-08T05:11:05;18.70;;;12.07;;
19867;SDS011;10096;51.112;6.776;2023-03-08T05:13:32;17.17;;;11.60;;
19867;SDS011;10096;51.112;6.776;2023-03-08T05:16:04;18.70;;;13.03;;
19867;SDS011;10096;51.112;6.776;2023-03-08T05:18:34;24.63;;;16.40;;
19867;SDS011;10096;51.112;6.776;2023-03-08T05:21:03;23.47;;;16.50;;
19867;SDS011;10096;51.112;6.776;2023-03-08T05:23:31;21.73;;;15.43;;
19867;SDS011;10096;51.112;6.776;2023-03-08T05:25:59;22.73;;;15.20;;
19867;SDS011;10096;51.112;6.776;2023-03-08T05:28:28;19.97;;;13.80;;
19867;SDS011;10096;51.112;6.776;2023-03-08T05:30:59;17.30;;;12.30;;
19867;SDS011;10096;51.112;6.776;2023-03-08T05:33:28;21.27;;;13.10;;
19867;SDS011;10096;51.112;6.776;2023-03-08T05:35:55;19.33;;;13.90;;
19867;SDS011;10096;51.112;6.776;2023-03-08T05:38:24;21.13;;;13.70;;
19867;SDS011;10096;51.112;6.776;2023-03-08T05:40:51;19.57;;;13.37;;
19867;SDS011;10096;51.112;6.776;2023-03-08T05:43:20;18.07;;;11.90;;
19867;SDS011;10096;51.112;6.776;2023-03-08T05:45:53;17.40;;;11.77;;
19867;SDS011;10096;51.112;6.776;2023-03-08T05:48:21;18.30;;;11.87;;
19867;SDS011;10096;51.112;6.776;2023-03-08T05:50:49;19.90;;;13.23;;
19867;SDS011;10096;51.112;6.776;2023-03-08T05:53:17;20.53;;;13.97;;
19867;SDS011;10096;51.112;6.776;2023-03-08T05:55:43;18.63;;;12.37;;
19867;SDS011;10096;51.112;6.776;2023-03-08T05:58:10;21.90;;;13.30;;
19867;SDS011;10096;51.112;6.776;2023-03-08T06:00:37;21.03;;;12.83;;
19867;SDS011;10096;51.112;6.776;2023-03-08T06:03:04;20.40;;;11.83;;
19867;SDS011;10096;51.112;6.776;2023-03-08T06:05:31;14.93;;;9.90;;
19867;SDS011;10096;51.112;6.776;2023-03-08T06:08:00;14.03;;;9.67;;
19867;SDS011;10096;51.112;6.776;2023-03-08T06:10:27;14.53;;;9.37;;
19867;SDS011;10096;51.112;6.776;2023-03-08T06:12:54;12.50;;;9.37;;
19867;SDS011;10096;51.112;6.776;2023-03-08T06:15:22;13.60;;;9.73;;
19867;SDS011;10096;51.112;6.776;2023-03-08T06:17:50;19.43;;;11.17;;
19867;SDS011;10096;51.112;6.776;2023-03-08T06:20:18;15.47;;;11.80;;
19867;SDS011;10096;51.112;6.776;2023-03-08T06:22:45;16.90;;;11.73;;
19867;SDS011;10096;51.112;6.776;2023-03-08T06:25:13;16.70;;;10.10;;
19867;SDS011;10096;51.112;6.776;2023-03-08T06:27:42;15.43;;;10.37;;
19867;SDS011;10096;51.112;6.776;2023-03-08T06:30:09;15.50;;;10.63;;
19867;SDS011;10096;51.112;6.776;2023-03-08T06:32:37;16.57;;;10.17;;
19867;SDS011;10096;51.112;6.776;2023-03-08T06:35:04;16.07;;;9.97;;
19867;SDS011;10096;51.112;6.776;2023-03-08T06:37:32;17.07;;;10.87;;
19867;SDS011;10096;51.112;6.776;2023-03-08T06:39:59;25.40;;;18.63;;
19867;SDS011;10096;51.112;6.776;2023-03-08T06:42:28;15.07;;;10.00;;
19867;SDS011;10096;51.112;6.776;2023-03-08T06:44:55;15.10;;;10.53;;
19867;SDS011;10096;51.112;6.776;2023-03-08T06:47:22;14.93;;;11.37;;
19867;SDS011;10096;51.112;6.776;2023-03-08T06:49:48;13.47;;;10.17;;
19867;SDS011;10096;51.112;6.776;2023-03-08T06:52:17;16.10;;;11.10;;
19867;SDS011;10096;51.112;6.776;2023-03-08T06:54:46;12.83;;;9.10;;
19867;SDS011;10096;51.112;6.776;2023-03-08T06:57:13;16.63;;;11.13;;
19867;SDS011;10096;51.112;6.776;2023-03-08T06:59:42;15.57;;;9.93;;
19867;SDS011;10096;51.112;6.776;2023-03-08T07:02:09;15.33;;;10.40;;
19867;SDS011;10096;51.112;6.776;2023-03-08T07:04:36;14.60;;;10.30;;
19867;SDS011;10096;51.112;6.776;2023-03-08T07:07:03;17.47;;;10.17;;
19867;SDS011;10096;51.112;6.776;2023-03-08T07:09:31;13.70;;;9.50;;
19867;SDS011;10096;51.112;6.776;2023-03-08T07:11:59;15.63;;;10.10;;
19867;SDS011;10096;51.112;6.776;2023-03-08T07:14:26;12.20;;;9.27;;
19867;SDS011;10096;51.112;6.776;2023-03-08T07:16:57;15.80;;;9.87;;
19867;SDS011;10096;51.112;6.776;2023-03-08T07:19:25;14.13;;;10.00;;
19867;SDS011;10096;51.112;6.776;2023-03-08T07:21:52;19.33;;;11.33;;
19867;SDS011;10096;51.112;6.776;2023-03-08T07:24:19;15.33;;;11.50;;
19867;SDS011;10096;51.112;6.776;2023-03-08T07:26:46;16.07;;;10.60;;
19867;SDS011;10096;51.112;6.776;2023-03-08T07:29:15;17.17;;;11.13;;
19867;SDS011;10096;51.112;6.776;2023-03-08T07:31:42;16.47;;;10.70;;
19867;SDS011;10096;51.112;6.776;2023-03-08T07:34:10;15.40;;;9.43;;
19867;SDS011;10096;51.112;6.776;2023-03-08T07:36:37;15.23;;;10.47;;
19867;SDS011;10096;51.112;6.776;2023-03-08T07:39:05;14.50;;;10.27;;
19867;SDS011;10096;51.112;6.776;2023-03-08T07:41:32;15.30;;;10.57;;
19867;SDS011;10096;51.112;6.776;2023-03-08T07:43:59;14.73;;;10.10;;
19867;SDS011;10096;51.112;6.776;2023-03-08T07:46:26;13.53;;;8.87;;
19867;SDS011;10096;51.112;6.776;2023-03-08T07:48:53;14.33;;;9.13;;
19867;SDS011;10096;51.112;6.776;2023-03-08T07:51:22;13.20;;;8.13;;
19867;SDS011;10096;51.112;6.776;2023-03-08T07:53:50;12.50;;;7.97;;
19867;SDS011;10096;51.112;6.776;2023-03-08T07:56:18;12.77;;;9.23;;
19867;SDS011;10096;51.112;6.776;2023-03-08T07:58:45;11.43;;;7.50;;
19867;SDS011;10096;51.112;6.776;2023-03-08T08:01:12;11.77;;;7.73;;
19867;SDS011;10096;51.112;6.776;2023-03-08T08:03:39;10.93;;;8.13;;
19867;SDS011;10096;51.112;6.776;2023-03-08T08:06:09;13.73;;;7.87;;
19867;SDS011;10096;51.112;6.776;2023-03-08T08:08:38;11.67;;;7.90;;
19867;SDS011;10096;51.112;6.776;2023-03-08T08:11:11;11.03;;;7.70;;
19867;SDS011;10096;51.112;6.776;2023-03-08T08:13:39;9.67;;;7.13;;
19867;SDS011;10096;51.112;6.776;2023-03-08T08:16:06;10.50;;;7.43;;
19867;SDS011;10096;51.112;6.776;2023-03-08T08:18:34;10.63;;;7.87;;
19867;SDS011;10096;51.112;6.776;2023-03-08T08:21:01;11.20;;;8.40;;
19867;SDS011;10096;51.112;6.776;2023-03-08T08:23:30;11.10;;;7.47;;
19867;SDS011;10096;51.112;6.776;2023-03-08T08:25:59;10.17;;;7.60;;
19867;SDS011;10096;51.112;6.776;2023-03-08T08:28:29;12.43;;;8.80;;
19867;SDS011;10096;51.112;6.776;2023-03-08T08:30:57;10.43;;;8.00;;
19867;SDS011;10096;51.112;6.776;2023-03-08T08:33:26;11.90;;;7.97;;
19867;SDS011;10096;51.112;6.776;2023-03-08T08:35:53;10.80;;;8.40;;
19867;SDS011;10096;51.112;6.776;2023-03-08T08:38:21;12.17;;;9.10;;
19867;SDS011;10096;51.112;6.776;2023-03-08T08:40:48;10.97;;;8.77;;
19867;SDS011;10096;51.112;6.776;2023-03-08T08:43:16;10.63;;;7.43;;
19867;SDS011;10096;51.112;6.776;2023-03-08T08:45:43;10.63;;;8.00;;
19867;SDS011;10096;51.112;6.776;2023-03-08T08:48:11;11.37;;;8.07;;
19867;SDS011;10096;51.112;6.776;2023-03-08T08:50:39;10.40;;;7.97;;
19867;SDS011;10096;51.112;6.776;2023-03-08T08:53:07;11.53;;;8.23;;
19867;SDS011;10096;51.112;6.776;2023-03-08T08:55:35;11.83;;;8.30;;
19867;SDS011;10096;51.112;6.776;2023-03-08T08:58:04;10.20;;;8.20;;
19867;SDS011;10096;51.112;6.776;2023-03-08T09:00:33;10.03;;;7.97;;
19867;SDS011;10096;51.112;6.776;2023-03-08T09:03:00;10.30;;;7.87;;
19867;SDS011;10096;51.112;6.776;2023-03-08T09:05:27;11.50;;;7.97;;
19867;SDS011;10096;51.112;6.776;2023-03-08T09:07:54;10.47;;;8.03;;
19867;SDS011;10096;51.112;6.776;2023-03-08T09:10:23;11.17;;;8.57;;
19867;SDS011;10096;51.112;6.776;2023-03-08T09:12:51;9.87;;;8.57;;
19867;SDS011;10096;51.112;6.776;2023-03-08T09:15:19;11.13;;;8.70;;
19867;SDS011;10096;51.112;6.776;2023-03-08T09:17:50;11.30;;;7.93;;
19867;SDS011;10096;51.112;6.776;2023-03-08T09:20:17;11.07;;;8.33;;
19867;SDS011;10096;51.112;6.776;2023-03-08T09:22:44;10.73;;;9.27;;
19867;SDS011;10096;51.112;6.776;2023-03-08T09:25:12;11.90;;;9.53;;
19867;SDS011;10096;51.112;6.776;2023-03-08T09:27:39;11.23;;;8.97;;
19867;SDS011;10096;51.112;6.776;2023-03-08T09:30:10;13.17;;;9.87;;
19867;SDS011;10096;51.112;6.776;2023-03-08T09:32:39;13.37;;;9.67;;
19867;SDS011;10096;51.112;6.776;2023-03-08T09:35:08;11.33;;;9.50;;
19867;SDS011;10096;51.112;6.776;2023-03-08T09:37:35;13.07;;;9.50;;
19867;SDS011;10096;51.112;6.776;2023-03-08T09:40:02;11.33;;;9.50;;
19867;SDS011;10096;51.112;6.776;2023-03-08T09:42:33;11.43;;;9.47;;
19867;SDS011;10096;51.112;6.776;2023-03-08T09:45:05;15.07;;;10.10;;
19867;SDS011;10096;51.112;6.776;2023-03-08T09:47:41;13.10;;;9.67;;
19867;SDS011;10096;51.112;6.776;2023-03-08T09:53:10;15.77;;;14.07;;
19867;SDS011;10096;51.112;6.776;2023-03-08T09:55:44;11.60;;;9.97;;
19867;SDS011;10096;51.112;6.776;2023-03-08T09:58:15;16.50;;;11.03;;
19867;SDS011;10096;51.112;6.776;2023-03-08T10:00:47;13.47;;;11.17;;
19867;SDS011;10096;51.112;6.776;2023-03-08T10:03:25;14.00;;;11.20;;
19867;SDS011;10096;51.112;6.776;2023-03-08T10:06:09;13.03;;;10.97;;
19867;SDS011;10096;51.112;6.776;2023-03-08T10:08:45;15.23;;;11.80;;
19867;SDS011;10096;51.112;6.776;2023-03-08T10:11:19;17.90;;;12.50;;
19867;SDS011;10096;51.112;6.776;2023-03-08T10:13:54;13.57;;;11.70;;
19867;SDS011;10096;51.112;6.776;2023-03-08T10:16:24;14.83;;;12.10;;
19867;SDS011;10096;51.112;6.776;2023-03-08T10:18:54;14.57;;;11.73;;
19867;SDS011;10096;51.112;6.776;2023-03-08T10:21:42;14.77;;;11.53;;
19867;SDS011;10096;51.112;6.776;2023-03-08T10:24:13;20.53;;;14.60;;
19867;SDS011;10096;51.112;6.776;2023-03-08T10:26:42;13.60;;;11.67;;
19867;SDS011;10096;51.112;6.776;2023-03-08T10:29:10;19.03;;;12.50;;
19867;SDS011;10096;51.112;6.776;2023-03-08T10:31:37;14.83;;;12.00;;
19867;SDS011;10096;51.112;6.776;2023-03-08T10:34:08;15.47;;;12.93;;
19867;SDS011;10096;51.112;6.776;2023-03-08T10:36:47;17.40;;;12.63;;
19867;SDS011;10096;51.112;6.776;2023-03-08T10:39:16;16.77;;;11.93;;
19867;SDS011;10096;51.112;6.776;2023-03-08T10:41:44;13.27;;;11.80;;
19867;SDS011;10096;51.112;6.776;2023-03-08T10:44:26;14.60;;;12.10;;
19867;SDS011;10096;51.112;6.776;2023-03-08T10:46:57;17.27;;;13.10;;
19867;SDS011;10096;51.112;6.776;2023-03-08T10:49:26;17.53;;;13.13;;
19867;SDS011;10096;51.112;6.776;2023-03-08T10:51:57;17.30;;;13.43;;
19867;SDS011;10096;51.112;6.776;2023-03-08T10:54:26;18.53;;;14.20;;
19867;SDS011;10096;51.112;6.776;2023-03-08T10:56:54;15.13;;;13.27;;
19867;SDS011;10096;51.112;6.776;2023-03-08T10:59:25;18.87;;;13.87;;
19867;SDS011;10096;51.112;6.776;2023-03-08T11:01:57;13.30;;;11.60;;
19867;SDS011;10096;51.112;6.776;2023-03-08T11:04:28;12.73;;;11.43;;
19867;SDS011;10096;51.112;6.776;2023-03-08T11:06:57;13.60;;;10.83;;
19867;SDS011;10096;51.112;6.776;2023-03-08T11:09:34;10.83;;;9.73;;
19867;SDS011;10096;51.112;6.776;2023-03-08T11:12:02;11.93;;;10.63;;
19867;SDS011;10096;51.112;6.776;2023-03-08T11:14:29;11.53;;;10.33;;
19867;SDS011;10096;51.112;6.776;2023-03-08T11:16:59;12.43;;;10.07;;
19867;SDS011;10096;51.112;6.776;2023-03-08T11:25:37;10.93;;;9.83;;
19867;SDS011;10096;51.112;6.776;2023-03-08T11:28:16;12.50;;;11.20;;
19867;SDS011;10096;51.112;6.776;2023-03-08T11:30:54;12.93;;;11.63;;
19867;SDS011;10096;51.112;6.776;2023-03-08T11:33:35;12.77;;;10.80;;
19867;SDS011;10096;51.112;6.776;2023-03-08T11:36:15;12.23;;;10.80;;
19867;SDS011;10096;51.112;6.776;2023-03-08T11:38:53;12.93;;;11.63;;
19867;SDS011;10096;51.112;6.776;2023-03-08T11:41:40;12.83;;;11.27;;
19867;SDS011;10096;51.112;6.776;2023-03-08T11:44:27;12.70;;;11.00;;
19867;SDS011;10096;51.112;6.776;2023-03-08T11:47:17;12.97;;;11.67;;
19867;SDS011;10096;51.112;6.776;2023-03-08T11:50:10;13.77;;;12.17;;
19867;SDS011;10096;51.112;6.776;2023-03-08T11:52:47;13.27;;;11.87;;
19867;SDS011;10096;51.112;6.776;2023-03-08T11:55:31;12.73;;;11.37;;
19867;SDS011;10096;51.112;6.776;2023-03-08T11:58:08;11.93;;;10.63;;
19867;SDS011;10096;51.112;6.776;2023-03-08T12:00:42;12.57;;;10.73;;
19867;SDS011;10096;51.112;6.776;2023-03-08T12:03:17;12.50;;;11.20;;
19867;SDS011;10096;51.112;6.776;2023-03-08T12:05:47;12.13;;;10.83;;
19867;SDS011;10096;51.112;6.776;2023-03-08T12:08:21;12.00;;;10.80;;
19867;SDS011;10096;51.112;6.776;2023-03-08T12:11:06;11.23;;;10.10;;
19867;SDS011;10096;51.112;6.776;2023-03-08T12:13:39;10.47;;;9.37;;
19867;SDS011;10096;51.112;6.776;2023-03-08T12:16:12;10.67;;;9.67;;
19867;SDS011;10096;51.112;6.776;2023-03-08T12:18:44;10.50;;;9.40;;
19867;SDS011;10096;51.112;6.776;2023-03-08T12:21:17;15.47;;;10.37;;
19867;SDS011;10096;51.112;6.776;2023-03-08T12:23:55;11.90;;;10.07;;
19867;SDS011;10096;51.112;6.776;2023-03-08T12:26:32;14.50;;;11.13;;
19867;SDS011;10096;51.112;6.776;2023-03-08T12:29:08;12.63;;;11.33;;
19867;SDS011;10096;51.112;6.776;2023-03-08T12:31:42;14.40;;;12.20;;
19867;SDS011;10096;51.112;6.776;2023-03-08T12:34:21;13.73;;;12.23;;
19867;SDS011;10096;51.112;6.776;2023-03-08T12:37:21;13.97;;;12.23;;
19867;SDS011;10096;51.112;6.776;2023-03-08T12:39:57;12.37;;;11.17;;
19867;SDS011;10096;51.112;6.776;2023-03-08T12:42:30;11.80;;;10.60;;
19867;SDS011;10096;51.112;6.776;2023-03-08T12:48:00;13.30;;;11.67;;
19867;SDS011;10096;51.112;6.776;2023-03-08T12:50:40;11.67;;;10.47;;
19867;SDS011;10096;51.112;6.776;2023-03-08T12:53:20;12.47;;;11.17;;
19867;SDS011;10096;51.112;6.776;2023-03-08T12:59:33;13.40;;;12.00;;
19867;SDS011;10096;51.112;6.776;2023-03-08T13:02:22;12.83;;;11.57;;
19867;SDS011;10096;51.112;6.776;2023-03-08T13:05:02;12.73;;;11.37;;
19867;SDS011;10096;51.112;6.776;2023-03-08T13:07:48;13.47;;;12.07;;
19867;SDS011;10096;51.112;6.776;2023-03-08T13:17:31;13.73;;;12.30;;
19867;SDS011;10096;51.112;6.776;2023-03-08T13:20:01;13.10;;;11.77;;
19867;SDS011;10096;51.112;6.776;2023-03-08T13:22:36;14.33;;;12.73;;
19867;SDS011;10096;51.112;6.776;2023-03-08T13:25:14;12.17;;;10.97;;
19867;SDS011;10096;51.112;6.776;2023-03-08T13:27:49;13.90;;;12.40;;
19867;SDS011;10096;51.112;6.776;2023-03-08T13:30:27;13.70;;;12.30;;
19867;SDS011;10096;51.112;6.776;2023-03-08T13:32:59;13.00;;;11.60;;
19867;SDS011;10096;51.112;6.776;2023-03-08T13:35:26;13.57;;;12.17;;
19867;SDS011;10096;51.112;6.776;2023-03-08T13:37:54;13.17;;;11.87;;
19867;SDS011;10096;51.112;6.776;2023-03-08T13:40:24;12.80;;;11.47;;
19867;SDS011;10096;51.112;6.776;2023-03-08T13:42:54;13.90;;;11.40;;
19867;SDS011;10096;51.112;6.776;2023-03-08T13:45:22;13.83;;;11.97;;
19867;SDS011;10096;51.112;6.776;2023-03-08T13:47:59;12.50;;;11.10;;
19867;SDS011;10096;51.112;6.776;2023-03-08T13:50:32;13.93;;;11.70;;
19867;SDS011;10096;51.112;6.776;2023-03-08T13:53:16;13.17;;;11.77;;
19867;SDS011;10096;51.112;6.776;2023-03-08T13:56:04;13.73;;;11.50;;
19867;SDS011;10096;51.112;6.776;2023-03-08T13:58:38;13.40;;;12.00;;
19867;SDS011;10096;51.112;6.776;2023-03-08T14:01:11;14.23;;;12.70;;
19867;SDS011;10096;51.112;6.776;2023-03-08T14:03:41;13.00;;;11.80;;
19867;SDS011;10096;51.112;6.776;2023-03-08T14:06:15;13.97;;;12.47;;
19867;SDS011;10096;51.112;6.776;2023-03-08T14:08:44;14.10;;;12.60;;
19867;SDS011;10096;51.112;6.776;2023-03-08T14:11:13;13.57;;;12.13;;
19867;SDS011;10096;51.112;6.776;2023-03-08T14:13:45;13.73;;;12.10;;
19867;SDS011;10096;51.112;6.776;2023-03-08T14:16:23;13.80;;;12.20;;
19867;SDS011;10096;51.112;6.776;2023-03-08T14:18:55;12.33;;;11.03;;
19867;SDS011;10096;51.112;6.776;2023-03-08T14:21:23;12.27;;;10.97;;
19867;SDS011;10096;51.112;6.776;2023-03-08T14:23:52;12.63;;;11.33;;
19867;SDS011;10096;51.112;6.776;2023-03-08T14:26:28;12.67;;;11.37;;
19867;SDS011;10096;51.112;6.776;2023-03-08T14:29:08;12.87;;;11.27;;
19867;SDS011;10096;51.112;6.776;2023-03-08T14:31:38;12.23;;;10.97;;
19867;SDS011;10096;51.112;6.776;2023-03-08T14:34:19;12.20;;;10.90;;
19867;SDS011;10096;51.112;6.776;2023-03-08T14:36:50;11.87;;;10.63;;
19867;SDS011;10096;51.112;6.776;2023-03-08T14:39:20;11.77;;;10.40;;
19867;SDS011;10096;51.112;6.776;2023-03-08T14:41:49;10.80;;;9.70;;
19867;SDS011;10096;51.112;6.776;2023-03-08T14:44:18;11.63;;;10.43;;
19867;SDS011;10096;51.112;6.776;2023-03-08T14:46:46;10.90;;;9.80;;
19867;SDS011;10096;51.112;6.776;2023-03-08T14:49:27;13.20;;;10.83;;
19867;SDS011;10096;51.112;6.776;2023-03-08T14:51:54;11.07;;;9.60;;
19867;SDS011;10096;51.112;6.776;2023-03-08T14:54:23;11.33;;;10.23;;
19867;SDS011;10096;51.112;6.776;2023-03-08T14:56:56;10.90;;;9.53;;
19867;SDS011;10096;51.112;6.776;2023-03-08T14:59:24;11.93;;;10.23;;
19867;SDS011;10096;51.112;6.776;2023-03-08T15:01:51;11.40;;;10.20;;
19867;SDS011;10096;51.112;6.776;2023-03-08T15:04:18;12.20;;;10.63;;
19867;SDS011;10096;51.112;6.776;2023-03-08T15:06:48;11.67;;;10.47;;
19867;SDS011;10096;51.112;6.776;2023-03-08T15:09:18;11.60;;;10.23;;
19867;SDS011;10096;51.112;6.776;2023-03-08T15:11:49;11.47;;;10.37;;